sensor_id;sensor_type;location;lat;lon;timestamp;pressure;altitude;pressure_sealevel;temperature;humidity
12666;BME280;58531;59.050;17.416;2023-01-29T00:00:51;100734.22;;;-0.98;100.00
12666;BME280;58531;59.050;17.416;2023-01-29T00:03:20;100725.38;;;-0.87;100.00
12666;BME280;58531;59.050;17.416;2023-01-29T00:05:46;100723.53;;;-0.83;100.00
12666;BME280;58531;59.050;17.416;2023-01-29T00:08:13;100718.72;;;-0.81;100.00
12666;BME280;58531;59.050;17.416;2023-01-29T00:10:40;100720.75;;;-0.67;100.00
12666;BME280;58531;59.050;17.416;2023-01-29T00:13:07;100722.72;;;-0.61;100.00
12666;BME280;58531;59.050;17.416;2023-01-29T00:15:34;100733.22;;;-0.57;100.00
12666;BME280;58531;59.050;17.416;2023-01-29T00:18:01;100725.03;;;-0.52;100.00
12666;BME280;58531;59.050;17.416;2023-01-29T00:20:29;100722.13;;;-0.47;100.00
12666;BME280;58531;59.050;17.416;2023-01-29T00:22:56;100715.44;;;-0.41;100.00
12666;BME280;58531;59.050;17.416;2023-01-29T00:25:23;100717.69;;;-0.40;100.00
12666;BME280;58531;59.050;17.416;2023-01-29T00:27:50;100727.53;;;-0.33;100.00
12666;BME280;58531;59.050;17.416;2023-01-29T00:30:17;100725.69;;;-0.29;100.00
12666;BME280;58531;59.050;17.416;2023-01-29T00:32:45;100722.66;;;-0.31;100.00
12666;BME280;58531;59.050;17.416;2023-01-29T00:35:12;100729.84;;;-0.25;100.00
12666;BME280;58531;59.050;17.416;2023-01-29T00:37:40;100724.91;;;-0.30;100.00
12666;BME280;58531;59.050;17.416;2023-01-29T00:40:09;100728.75;;;-0.24;100.00
12666;BME280;58531;59.050;17.416;2023-01-29T00:42:36;100732.09;;;-0.23;100.00
12666;BME280;58531;59.050;17.416;2023-01-29T00:45:20;100727.31;;;-0.18;100.00
12666;BME280;58531;59.050;17.416;2023-01-29T00:47:47;100722.47;;;-0.16;100.00
12666;BME280;58531;59.050;17.416;2023-01-29T00:50:14;100720.19;;;-0.17;100.00
12666;BME280;58531;59.050;17.416;2023-01-29T00:52:42;100716.50;;;-0.13;100.00
12666;BME280;58531;59.050;17.416;2023-01-29T00:55:10;100713.81;;;-0.16;100.00
12666;BME280;58531;59.050;17.416;2023-01-29T00:57:37;100706.00;;;-0.09;100.00
12666;BME280;58531;59.050;17.416;2023-01-29T01:00:06;100712.78;;;-0.08;100.00
12666;BME280;58531;59.050;17.416;2023-01-29T01:02:33;100705.28;;;-0.10;100.00
12666;BME280;58531;59.050;17.416;2023-01-29T01:05:18;100706.78;;;-0.09;100.00
12666;BME280;58531;59.050;17.416;2023-01-29T01:07:47;100703.03;;;-0.08;100.00
12666;BME280;58531;59.050;17.416;2023-01-29T01:10:17;100701.56;;;-0.05;100.00
12666;BME280;58531;59.050;17.416;2023-01-29T01:12:47;100699.31;;;-0.07;100.00
12666;BME280;58531;59.050;17.416;2023-01-29T01:15:15;100694.06;;;-0.07;100.00
12666;BME280;58531;59.050;17.416;2023-01-29T01:17:42;100692.53;;;-0.08;100.00
12666;BME280;58531;59.050;17.416;2023-01-29T01:20:12;100679.75;;;-0.09;100.00
12666;BME280;58531;59.050;17.416;2023-01-29T01:22:39;100669.91;;;-0.19;100.00
12666;BME280;58531;59.050;17.416;2023-01-29T01:25:08;100672.91;;;-0.21;100.00
12666;BME280;58531;59.050;17.416;2023-01-29T01:27:35;100668.38;;;-0.27;100.00
12666;BME280;58531;59.050;17.416;2023-01-29T01:30:07;100662.69;;;-0.33;100.00
12666;BME280;58531;59.050;17.416;2023-01-29T01:32:34;100654.72;;;-0.43;100.00
12666;BME280;58531;59.050;17.416;2023-01-29T01:35:01;100656.50;;;-0.51;100.00
12666;BME280;58531;59.050;17.416;2023-01-29T01:37:28;100650.44;;;-0.58;100.00
12666;BME280;58531;59.050;17.416;2023-01-29T01:39:55;100655.97;;;-0.67;100.00
12666;BME280;58531;59.050;17.416;2023-01-29T01:42:26;100646.84;;;-0.76;100.00
12666;BME280;58531;59.050;17.416;2023-01-29T01:44:57;100653.53;;;-0.82;100.00
12666;BME280;58531;59.050;17.416;2023-01-29T01:47:31;100646.00;;;-0.87;100.00
12666;BME280;58531;59.050;17.416;2023-01-29T01:50:02;100643.69;;;-0.92;100.00
12666;BME280;58531;59.050;17.416;2023-01-29T01:52:33;100639.88;;;-0.98;100.00
12666;BME280;58531;59.050;17.416;2023-01-29T01:55:02;100630.47;;;-1.03;100.00
12666;BME280;58531;59.050;17.416;2023-01-29T01:57:31;100632.28;;;-1.07;100.00
12666;BME280;58531;59.050;17.416;2023-01-29T02:00:02;100624.72;;;-1.12;100.00
12666;BME280;58531;59.050;17.416;2023-01-29T02:02:35;100631.38;;;-1.17;100.00
12666;BME280;58531;59.050;17.416;2023-01-29T02:05:20;100621.22;;;-1.22;100.00
12666;BME280;58531;59.050;17.416;2023-01-29T02:08:04;100610.66;;;-1.29;100.00
12666;BME280;58531;59.050;17.416;2023-01-29T02:10:49;100614.34;;;-1.34;100.00
12666;BME280;58531;59.050;17.416;2023-01-29T02:13:17;100610.91;;;-1.38;100.00
12666;BME280;58531;59.050;17.416;2023-01-29T02:15:45;100601.16;;;-1.41;100.00
12666;BME280;58531;59.050;17.416;2023-01-29T02:18:14;100591.38;;;-1.44;100.00
12666;BME280;58531;59.050;17.416;2023-01-29T02:20:46;100596.94;;;-1.49;100.00
12666;BME280;58531;59.050;17.416;2023-01-29T02:26:28;100572.47;;;-1.60;100.00
12666;BME280;58531;59.050;17.416;2023-01-29T02:29:01;100585.44;;;-1.67;100.00
12666;BME280;58531;59.050;17.416;2023-01-29T02:31:53;100585.75;;;-1.72;100.00
12666;BME280;58531;59.050;17.416;2023-01-29T02:34:28;100578.25;;;-1.73;100.00
12666;BME280;58531;59.050;17.416;2023-01-29T02:37:25;100578.31;;;-1.70;100.00
12666;BME280;58531;59.050;17.416;2023-01-29T02:40:04;100564.97;;;-1.61;100.00
12666;BME280;58531;59.050;17.416;2023-01-29T02:42:39;100561.38;;;-1.50;100.00
12666;BME280;58531;59.050;17.416;2023-01-29T02:45:13;100557.03;;;-1.39;100.00
12666;BME280;58531;59.050;17.416;2023-01-29T02:47:45;100557.16;;;-1.28;100.00
12666;BME280;58531;59.050;17.416;2023-01-29T02:50:16;100558.78;;;-1.17;100.00
12666;BME280;58531;59.050;17.416;2023-01-29T02:52:51;100558.13;;;-1.11;100.00
12666;BME280;58531;59.050;17.416;2023-01-29T02:55:27;100570.13;;;-1.06;100.00
12666;BME280;58531;59.050;17.416;2023-01-29T02:58:01;100563.50;;;-0.97;100.00
12666;BME280;58531;59.050;17.416;2023-01-29T03:00:34;100547.09;;;-0.90;100.00
12666;BME280;58531;59.050;17.416;2023-01-29T03:03:06;100534.03;;;-0.87;100.00
12666;BME280;58531;59.050;17.416;2023-01-29T03:05:42;100523.94;;;-0.85;100.00
12666;BME280;58531;59.050;17.416;2023-01-29T03:08:21;100538.94;;;-0.82;100.00
12666;BME280;58531;59.050;17.416;2023-01-29T03:10:53;100532.63;;;-0.77;100.00
12666;BME280;58531;59.050;17.416;2023-01-29T03:13:27;100522.50;;;-0.75;100.00
12666;BME280;58531;59.050;17.416;2023-01-29T03:16:01;100518.78;;;-0.74;100.00
12666;BME280;58531;59.050;17.416;2023-01-29T03:18:32;100521.00;;;-0.76;100.00
12666;BME280;58531;59.050;17.416;2023-01-29T03:21:07;100515.00;;;-0.80;100.00
12666;BME280;58531;59.050;17.416;2023-01-29T03:23:51;100525.81;;;-0.85;100.00
12666;BME280;58531;59.050;17.416;2023-01-29T03:26:38;100523.19;;;-0.85;100.00
12666;BME280;58531;59.050;17.416;2023-01-29T03:29:23;100515.72;;;-0.83;100.00
12666;BME280;58531;59.050;17.416;2023-01-29T03:32:09;100517.22;;;-0.82;100.00
12666;BME280;58531;59.050;17.416;2023-01-29T03:34:40;100503.72;;;-0.84;100.00
12666;BME280;58531;59.050;17.416;2023-01-29T03:37:10;100497.69;;;-0.88;100.00
12666;BME280;58531;59.050;17.416;2023-01-29T03:39:43;100492.47;;;-0.88;100.00
12666;BME280;58531;59.050;17.416;2023-01-29T03:42:15;100491.28;;;-0.91;100.00
12666;BME280;58531;59.050;17.416;2023-01-29T03:44:52;100499.09;;;-0.98;100.00
12666;BME280;58531;59.050;17.416;2023-01-29T03:47:25;100500.59;;;-0.97;100.00
12666;BME280;58531;59.050;17.416;2023-01-29T03:49:58;100496.84;;;-0.99;100.00
12666;BME280;58531;59.050;17.416;2023-01-29T03:52:28;100488.19;;;-1.03;100.00
12666;BME280;58531;59.050;17.416;2023-01-29T03:55:03;100490.03;;;-1.07;100.00
12666;BME280;58531;59.050;17.416;2023-01-29T03:57:38;100484.78;;;-1.07;100.00
12666;BME280;58531;59.050;17.416;2023-01-29T04:00:12;100487.88;;;-0.98;100.00
12666;BME280;58531;59.050;17.416;2023-01-29T04:02:47;100484.16;;;-0.94;100.00
12666;BME280;58531;59.050;17.416;2023-01-29T04:05:20;100473.66;;;-0.97;100.00
12666;BME280;58531;59.050;17.416;2023-01-29T04:07:53;100466.91;;;-0.98;100.00
12666;BME280;58531;59.050;17.416;2023-01-29T04:10:25;100472.06;;;-1.05;100.00
12666;BME280;58531;59.050;17.416;2023-01-29T04:12:55;100466.09;;;-1.06;100.00
12666;BME280;58531;59.050;17.416;2023-01-29T04:15:26;100468.97;;;-1.14;100.00
12666;BME280;58531;59.050;17.416;2023-01-29T04:17:56;100479.84;;;-1.16;100.00
12666;BME280;58531;59.050;17.416;2023-01-29T04:20:23;100483.59;;;-1.13;100.00
12666;BME280;58531;59.050;17.416;2023-01-29T04:22:51;100476.84;;;-1.14;100.00
12666;BME280;58531;59.050;17.416;2023-01-29T04:25:20;100473.91;;;-1.09;100.00
12666;BME280;58531;59.050;17.416;2023-01-29T04:27:57;100464.22;;;-1.05;100.00
12666;BME280;58531;59.050;17.416;2023-01-29T04:30:34;100461.63;;;-1.02;100.00
12666;BME280;58531;59.050;17.416;2023-01-29T04:33:11;100457.88;;;-1.01;100.00
12666;BME280;58531;59.050;17.416;2023-01-29T04:35:48;100457.94;;;-0.97;100.00
12666;BME280;58531;59.050;17.416;2023-01-29T04:38:29;100448.97;;;-0.93;100.00
12666;BME280;58531;59.050;17.416;2023-01-29T04:41:03;100447.50;;;-0.90;100.00
12666;BME280;58531;59.050;17.416;2023-01-29T04:43:36;100453.16;;;-0.85;100.00
12666;BME280;58531;59.050;17.416;2023-01-29T04:46:10;100452.03;;;-0.84;100.00
12666;BME280;58531;59.050;17.416;2023-01-29T04:48:48;100445.28;;;-0.88;100.00
12666;BME280;58531;59.050;17.416;2023-01-29T04:51:24;100458.78;;;-0.86;100.00
12666;BME280;58531;59.050;17.416;2023-01-29T04:54:01;100449.81;;;-0.85;100.00
12666;BME280;58531;59.050;17.416;2023-01-29T04:56:36;100435.59;;;-0.81;100.00
12666;BME280;58531;59.050;17.416;2023-01-29T04:59:07;100427.03;;;-0.74;100.00
12666;BME280;58531;59.050;17.416;2023-01-29T05:01:36;100421.44;;;-0.73;100.00
12666;BME280;58531;59.050;17.416;2023-01-29T05:04:08;100416.16;;;-0.76;100.00
12666;BME280;58531;59.050;17.416;2023-01-29T05:06:38;100415.41;;;-0.80;100.00
12666;BME280;58531;59.050;17.416;2023-01-29T05:09:06;100410.56;;;-0.75;100.00
12666;BME280;58531;59.050;17.416;2023-01-29T05:11:34;100391.88;;;-0.66;100.00
12666;BME280;58531;59.050;17.416;2023-01-29T05:14:04;100393.38;;;-0.65;100.00
12666;BME280;58531;59.050;17.416;2023-01-29T05:16:36;100388.91;;;-0.61;100.00
12666;BME280;58531;59.050;17.416;2023-01-29T05:19:08;100387.06;;;-0.61;100.00
12666;BME280;58531;59.050;17.416;2023-01-29T05:21:35;100379.59;;;-0.55;100.00
12666;BME280;58531;59.050;17.416;2023-01-29T05:24:08;100376.25;;;-0.56;100.00
12666;BME280;58531;59.050;17.416;2023-01-29T05:26:36;100376.25;;;-0.49;100.00
12666;BME280;58531;59.050;17.416;2023-01-29T05:29:21;100361.66;;;-0.46;100.00
12666;BME280;58531;59.050;17.416;2023-01-29T05:31:47;100354.16;;;-0.48;100.00
12666;BME280;58531;59.050;17.416;2023-01-29T05:34:16;100351.19;;;-0.46;100.00
12666;BME280;58531;59.050;17.416;2023-01-29T05:36:43;100352.69;;;-0.45;100.00
12666;BME280;58531;59.050;17.416;2023-01-29T05:39:09;100336.94;;;-0.45;100.00
12666;BME280;58531;59.050;17.416;2023-01-29T05:41:36;100312.22;;;-0.41;100.00
12666;BME280;58531;59.050;17.416;2023-01-29T05:44:04;100306.97;;;-0.41;100.00
12666;BME280;58531;59.050;17.416;2023-01-29T05:46:30;100307.38;;;-0.42;100.00
12666;BME280;58531;59.050;17.416;2023-01-29T05:48:57;100305.84;;;-0.43;100.00
12666;BME280;58531;59.050;17.416;2023-01-29T05:51:26;100298.00;;;-0.43;100.00
12666;BME280;58531;59.050;17.416;2023-01-29T05:53:53;100298.72;;;-0.46;100.00
12666;BME280;58531;59.050;17.416;2023-01-29T05:56:19;100292.75;;;-0.43;100.00
12666;BME280;58531;59.050;17.416;2023-01-29T05:58:46;100284.50;;;-0.45;100.00
12666;BME280;58531;59.050;17.416;2023-01-29T06:01:15;100281.88;;;-0.45;100.00
12666;BME280;58531;59.050;17.416;2023-01-29T06:03:42;100276.28;;;-0.40;100.00
12666;BME280;58531;59.050;17.416;2023-01-29T06:06:09;100269.91;;;-0.39;100.00
12666;BME280;58531;59.050;17.416;2023-01-29T06:08:38;100262.78;;;-0.42;100.00
12666;BME280;58531;59.050;17.416;2023-01-29T06:11:07;100270.28;;;-0.37;100.00
12666;BME280;58531;59.050;17.416;2023-01-29T06:13:34;100281.13;;;-0.42;100.00
12666;BME280;58531;59.050;17.416;2023-01-29T06:16:03;100277.78;;;-0.39;100.00
12666;BME280;58531;59.050;17.416;2023-01-29T06:18:30;100274.78;;;-0.41;100.00
12666;BME280;58531;59.050;17.416;2023-01-29T06:20:59;100275.16;;;-0.39;100.00
12666;BME280;58531;59.050;17.416;2023-01-29T06:23:27;100288.28;;;-0.39;100.00
12666;BME280;58531;59.050;17.416;2023-01-29T06:25:59;100292.41;;;-0.38;100.00
12666;BME280;58531;59.050;17.416;2023-01-29T06:28:26;100301.38;;;-0.36;100.00
12666;BME280;58531;59.050;17.416;2023-01-29T06:30:56;100307.03;;;-0.34;100.00
12666;BME280;58531;59.050;17.416;2023-01-29T06:33:24;100284.16;;;-0.37;100.00
12666;BME280;58531;59.050;17.416;2023-01-29T06:35:54;100281.56;;;-0.33;100.00
12666;BME280;58531;59.050;17.416;2023-01-29T06:38:21;100290.53;;;-0.34;100.00
12666;BME280;58531;59.050;17.416;2023-01-29T06:40:48;100286.41;;;-0.35;100.00
12666;BME280;58531;59.050;17.416;2023-01-29T06:43:16;100288.31;;;-0.32;100.00
12666;BME280;58531;59.050;17.416;2023-01-29T06:45:47;100280.06;;;-0.34;100.00
12666;BME280;58531;59.050;17.416;2023-01-29T06:48:14;100278.19;;;-0.30;100.00
12666;BME280;58531;59.050;17.416;2023-01-29T06:50:42;100272.91;;;-0.37;100.00
12666;BME280;58531;59.050;17.416;2023-01-29T06:53:09;100275.16;;;-0.39;100.00
12666;BME280;58531;59.050;17.416;2023-01-29T06:55:36;100276.31;;;-0.33;100.00
12666;BME280;58531;59.050;17.416;2023-01-29T06:58:07;100265.06;;;-0.30;100.00
12666;BME280;58531;59.050;17.416;2023-01-29T07:00:36;100259.06;;;-0.31;100.00
12666;BME280;58531;59.050;17.416;2023-01-29T07:03:03;100262.06;;;-0.29;100.00
12666;BME280;58531;59.050;17.416;2023-01-29T07:05:30;100251.97;;;-0.30;100.00
12666;BME280;58531;59.050;17.416;2023-01-29T07:07:57;100245.22;;;-0.28;100.00
12666;BME280;58531;59.050;17.416;2023-01-29T07:10:24;100244.81;;;-0.30;100.00
12666;BME280;58531;59.050;17.416;2023-01-29T07:12:51;100242.59;;;-0.31;100.00
12666;BME280;58531;59.050;17.416;2023-01-29T07:15:18;100228.72;;;-0.35;100.00
12666;BME280;58531;59.050;17.416;2023-01-29T07:17:56;100229.41;;;-0.42;100.00
12666;BME280;58531;59.050;17.416;2023-01-29T07:20:24;100233.53;;;-0.44;100.00
12666;BME280;58531;59.050;17.416;2023-01-29T07:22:51;100232.03;;;-0.45;100.00
12666;BME280;58531;59.050;17.416;2023-01-29T07:25:18;100241.03;;;-0.46;100.00
12666;BME280;58531;59.050;17.416;2023-01-29T07:27:44;100230.53;;;-0.46;100.00
12666;BME280;58531;59.050;17.416;2023-01-29T07:30:12;100225.69;;;-0.44;100.00
12666;BME280;58531;59.050;17.416;2023-01-29T07:32:39;100225.28;;;-0.46;100.00
12666;BME280;58531;59.050;17.416;2023-01-29T07:35:08;100218.94;;;-0.45;100.00
12666;BME280;58531;59.050;17.416;2023-01-29T07:37:35;100211.81;;;-0.52;100.00
12666;BME280;58531;59.050;17.416;2023-01-29T07:40:03;100199.81;;;-0.53;100.00
12666;BME280;58531;59.050;17.416;2023-01-29T07:42:35;100197.94;;;-0.56;100.00
12666;BME280;58531;59.050;17.416;2023-01-29T07:45:01;100201.63;;;-0.60;100.00
12666;BME280;58531;59.050;17.416;2023-01-29T07:47:28;100196.00;;;-0.66;100.00
12666;BME280;58531;59.050;17.416;2023-01-29T07:49:55;100200.88;;;-0.64;100.00
12666;BME280;58531;59.050;17.416;2023-01-29T07:52:23;100191.53;;;-0.62;100.00
12666;BME280;58531;59.050;17.416;2023-01-29T07:54:50;100179.53;;;-0.59;100.00
12666;BME280;58531;59.050;17.416;2023-01-29T07:57:17;100172.78;;;-0.60;100.00
12666;BME280;58531;59.050;17.416;2023-01-29T07:59:44;100167.56;;;-0.53;100.00
12666;BME280;58531;59.050;17.416;2023-01-29T08:02:11;100164.97;;;-0.46;100.00
12666;BME280;58531;59.050;17.416;2023-01-29T08:04:38;100161.63;;;-0.36;100.00
12666;BME280;58531;59.050;17.416;2023-01-29T08:07:05;100155.63;;;-0.30;100.00
12666;BME280;58531;59.050;17.416;2023-01-29T08:09:35;100154.50;;;-0.29;100.00
12666;BME280;58531;59.050;17.416;2023-01-29T08:12:02;100134.66;;;-0.23;100.00
12666;BME280;58531;59.050;17.416;2023-01-29T08:14:29;100120.81;;;-0.13;100.00
12666;BME280;58531;59.050;17.416;2023-01-29T08:16:56;100110.69;;;-0.11;100.00
12666;BME280;58531;59.050;17.416;2023-01-29T08:19:23;100112.19;;;-0.10;100.00
12666;BME280;58531;59.050;17.416;2023-01-29T08:21:50;100105.44;;;-0.04;100.00
12666;BME280;58531;59.050;17.416;2023-01-29T08:24:17;100100.16;;;-0.01;100.00
12666;BME280;58531;59.050;17.416;2023-01-29T08:26:45;100100.19;;;-0.04;100.00
12666;BME280;58531;59.050;17.416;2023-01-29T08:29:12;100103.16;;;0.01;100.00
12666;BME280;58531;59.050;17.416;2023-01-29T08:31:39;100097.16;;;0.01;100.00
12666;BME280;58531;59.050;17.416;2023-01-29T08:34:06;100100.91;;;0.03;100.00
12666;BME280;58531;59.050;17.416;2023-01-29T08:36:32;100097.53;;;0.06;100.00
12666;BME280;58531;59.050;17.416;2023-01-29T08:39:00;100090.78;;;0.16;100.00
12666;BME280;58531;59.050;17.416;2023-01-29T08:41:26;100091.16;;;0.18;100.00
12666;BME280;58531;59.050;17.416;2023-01-29T08:43:55;100084.03;;;0.25;100.00
12666;BME280;58531;59.050;17.416;2023-01-29T08:46:22;100087.38;;;0.29;100.00
12666;BME280;58531;59.050;17.416;2023-01-29T08:48:49;100086.22;;;0.37;100.00
12666;BME280;58531;59.050;17.416;2023-01-29T08:51:16;100085.47;;;0.40;100.00
12666;BME280;58531;59.050;17.416;2023-01-29T08:53:43;100072.69;;;0.49;100.00
12666;BME280;58531;59.050;17.416;2023-01-29T08:56:09;100067.78;;;0.58;100.00
12666;BME280;58531;59.050;17.416;2023-01-29T08:58:36;100056.53;;;0.58;100.00
12666;BME280;58531;59.050;17.416;2023-01-29T09:01:09;100057.66;;;0.60;100.00
12666;BME280;58531;59.050;17.416;2023-01-29T09:03:36;100047.88;;;0.64;100.00
12666;BME280;58531;59.050;17.416;2023-01-29T09:06:06;100047.50;;;0.66;100.00
12666;BME280;58531;59.050;17.416;2023-01-29T09:08:33;100035.50;;;0.68;100.00
12666;BME280;58531;59.050;17.416;2023-01-29T09:11:00;100038.09;;;0.72;100.00
12666;BME280;58531;59.050;17.416;2023-01-29T09:13:26;100046.72;;;0.72;100.00
12666;BME280;58531;59.050;17.416;2023-01-29T09:15:53;100040.72;;;0.75;100.00
12666;BME280;58531;59.050;17.416;2023-01-29T09:18:22;100036.22;;;0.69;100.00
12666;BME280;58531;59.050;17.416;2023-01-29T09:20:49;100031.72;;;0.69;100.00
12666;BME280;58531;59.050;17.416;2023-01-29T09:23:15;100031.72;;;0.69;100.00
12666;BME280;58531;59.050;17.416;2023-01-29T09:25:42;100036.22;;;0.72;100.00
12666;BME280;58531;59.050;17.416;2023-01-29T09:28:09;100027.91;;;0.77;100.00
12666;BME280;58531;59.050;17.416;2023-01-29T09:30:36;100029.41;;;0.78;100.00
12666;BME280;58531;59.050;17.416;2023-01-29T09:33:03;100030.88;;;0.86;100.00
12666;BME280;58531;59.050;17.416;2023-01-29T09:35:32;100026.00;;;0.92;100.00
12666;BME280;58531;59.050;17.416;2023-01-29T09:37:59;100027.09;;;0.94;100.00
12666;BME280;58531;59.050;17.416;2023-01-29T09:40:32;100019.56;;;1.00;100.00
12666;BME280;58531;59.050;17.416;2023-01-29T09:43:03;100013.91;;;1.01;100.00
12666;BME280;58531;59.050;17.416;2023-01-29T09:45:32;100010.94;;;0.96;100.00
12666;BME280;58531;59.050;17.416;2023-01-29T09:48:01;100007.16;;;1.00;100.00
12666;BME280;58531;59.050;17.416;2023-01-29T09:50:35;100013.50;;;1.03;100.00
12666;BME280;58531;59.050;17.416;2023-01-29T09:53:12;100003.75;;;1.03;100.00
12666;BME280;58531;59.050;17.416;2023-01-29T09:55:44;99994.38;;;1.02;100.00
12666;BME280;58531;59.050;17.416;2023-01-29T09:58:17;99993.97;;;1.07;100.00
12666;BME280;58531;59.050;17.416;2023-01-29T10:00:53;100007.53;;;1.02;100.00
12666;BME280;58531;59.050;17.416;2023-01-29T10:03:39;100002.63;;;1.04;100.00
12666;BME280;58531;59.050;17.416;2023-01-29T10:06:28;99978.91;;;1.11;100.00
12666;BME280;58531;59.050;17.416;2023-01-29T10:12:22;99963.91;;;1.08;100.00
12666;BME280;58531;59.050;17.416;2023-01-29T10:15:01;99961.66;;;1.10;100.00
12666;BME280;58531;59.050;17.416;2023-01-29T10:17:46;99963.16;;;1.11;100.00
12666;BME280;58531;59.050;17.416;2023-01-29T10:20:32;99964.28;;;1.10;100.00
12666;BME280;58531;59.050;17.416;2023-01-29T10:23:15;99960.47;;;1.18;100.00
12666;BME280;58531;59.050;17.416;2023-01-29T10:25:45;99957.44;;;1.23;100.00
12666;BME280;58531;59.050;17.416;2023-01-29T10:28:16;99965.31;;;1.23;100.00
12666;BME280;58531;59.050;17.416;2023-01-29T10:30:47;99957.78;;;1.25;100.00
12666;BME280;58531;59.050;17.416;2023-01-29T10:33:18;99936.75;;;1.25;100.00
12666;BME280;58531;59.050;17.416;2023-01-29T10:35:49;99936.75;;;1.21;100.00
12666;BME280;58531;59.050;17.416;2023-01-29T10:38:27;99917.97;;;1.23;100.00
12666;BME280;58531;59.050;17.416;2023-01-29T10:41:03;99931.13;;;1.23;100.00
12666;BME280;58531;59.050;17.416;2023-01-29T10:43:37;99923.16;;;1.30;100.00
12666;BME280;58531;59.050;17.416;2023-01-29T10:46:16;99919.38;;;1.31;100.00
12666;BME280;58531;59.050;17.416;2023-01-29T10:48:54;99913.72;;;1.36;100.00
12666;BME280;58531;59.050;17.416;2023-01-29T10:51:35;99903.56;;;1.38;100.00
12666;BME280;58531;59.050;17.416;2023-01-29T10:54:18;99895.59;;;1.45;100.00
12666;BME280;58531;59.050;17.416;2023-01-29T10:57:00;99892.84;;;1.55;100.00
12666;BME280;58531;59.050;17.416;2023-01-29T10:59:42;99882.63;;;1.64;100.00
12666;BME280;58531;59.050;17.416;2023-01-29T11:02:15;99883.03;;;1.63;100.00
12666;BME280;58531;59.050;17.416;2023-01-29T11:04:43;99880.66;;;1.72;100.00
12666;BME280;58531;59.050;17.416;2023-01-29T11:07:10;99871.66;;;1.69;100.00
12666;BME280;58531;59.050;17.416;2023-01-29T11:09:43;99868.31;;;1.69;100.00
12666;BME280;58531;59.050;17.416;2023-01-29T11:12:13;99866.03;;;1.71;100.00
12666;BME280;58531;59.050;17.416;2023-01-29T11:14:44;99852.50;;;1.69;100.00
12666;BME280;58531;59.050;17.416;2023-01-29T11:17:15;99842.34;;;1.71;100.00
12666;BME280;58531;59.050;17.416;2023-01-29T11:19:44;99834.03;;;1.72;100.00
12666;BME280;58531;59.050;17.416;2023-01-29T11:22:13;99822.00;;;1.75;100.00
12666;BME280;58531;59.050;17.416;2023-01-29T11:24:42;99801.72;;;1.72;100.00
12666;BME280;58531;59.050;17.416;2023-01-29T11:27:22;99802.88;;;1.71;100.00
12666;BME280;58531;59.050;17.416;2023-01-29T11:29:51;99805.44;;;1.74;100.00
12666;BME280;58531;59.050;17.416;2023-01-29T11:32:24;99797.16;;;1.76;100.00
12666;BME280;58531;59.050;17.416;2023-01-29T11:34:56;99797.94;;;1.73;100.00
12666;BME280;58531;59.050;17.416;2023-01-29T11:37:31;99784.44;;;1.71;100.00
12666;BME280;58531;59.050;17.416;2023-01-29T11:40:00;99776.91;;;1.73;100.00
12666;BME280;58531;59.050;17.416;2023-01-29T11:42:29;99780.56;;;1.79;100.00
12666;BME280;58531;59.050;17.416;2023-01-29T11:44:56;99766.97;;;1.84;100.00
12666;BME280;58531;59.050;17.416;2023-01-29T11:47:26;99749.56;;;1.90;100.00
12666;BME280;58531;59.050;17.416;2023-01-29T11:49:55;99739.66;;;2.01;100.00
12666;BME280;58531;59.050;17.416;2023-01-29T11:52:23;99744.22;;;1.97;100.00
12666;BME280;58531;59.050;17.416;2023-01-29T11:54:54;99735.19;;;1.98;100.00
12666;BME280;58531;59.050;17.416;2023-01-29T11:57:30;99729.19;;;1.97;100.00
12666;BME280;58531;59.050;17.416;2023-01-29T12:00:00;99712.59;;;2.00;100.00
12666;BME280;58531;59.050;17.416;2023-01-29T12:02:34;99709.19;;;2.00;100.00
12666;BME280;58531;59.050;17.416;2023-01-29T12:05:05;99717.88;;;1.97;100.00
12666;BME280;58531;59.050;17.416;2023-01-29T12:07:41;99702.09;;;1.97;100.00
12666;BME280;58531;59.050;17.416;2023-01-29T12:10:29;99696.84;;;1.97;100.00
12666;BME280;58531;59.050;17.416;2023-01-29T12:13:05;99688.56;;;1.98;100.00
12666;BME280;58531;59.050;17.416;2023-01-29T12:15:32;99691.81;;;2.06;100.00
12666;BME280;58531;59.050;17.416;2023-01-29T12:18:06;99692.16;;;2.08;100.00
12666;BME280;58531;59.050;17.416;2023-01-29T12:20:37;99680.75;;;2.14;100.00
12666;BME280;58531;59.050;17.416;2023-01-29T12:23:13;99670.00;;;2.28;100.00
12666;BME280;58531;59.050;17.416;2023-01-29T12:25:55;99668.31;;;2.37;100.00
12666;BME280;58531;59.050;17.416;2023-01-29T12:28:38;99648.63;;;2.45;100.00
12666;BME280;58531;59.050;17.416;2023-01-29T12:31:18;99626.97;;;2.57;100.00
12666;BME280;58531;59.050;17.416;2023-01-29T12:33:51;99618.72;;;2.55;100.00
12666;BME280;58531;59.050;17.416;2023-01-29T12:36:23;99613.78;;;2.57;100.00
12666;BME280;58531;59.050;17.416;2023-01-29T12:38:53;99613.69;;;2.61;100.00
12666;BME280;58531;59.050;17.416;2023-01-29T12:41:32;99606.94;;;2.60;100.00
12666;BME280;58531;59.050;17.416;2023-01-29T12:44:09;99602.44;;;2.60;100.00
12666;BME280;58531;59.050;17.416;2023-01-29T12:46:40;99603.84;;;2.65;100.00
12666;BME280;58531;59.050;17.416;2023-01-29T12:49:13;99608.78;;;2.63;100.00
12666;BME280;58531;59.050;17.416;2023-01-29T12:51:47;99594.88;;;2.62;100.00
12666;BME280;58531;59.050;17.416;2023-01-29T12:54:18;99601.66;;;2.60;100.00
12666;BME280;58531;59.050;17.416;2023-01-29T12:56:49;99588.16;;;2.58;100.00
12666;BME280;58531;59.050;17.416;2023-01-29T12:59:24;99586.63;;;2.60;100.00
12666;BME280;58531;59.050;17.416;2023-01-29T13:01:55;99569.09;;;2.70;100.00